This is the latest recevied weather packets stored in our database for station/object EB2EMZ-W. If no packets are shown the sender has not sent any weather packets the latest 10 day(s).
| Time | Temp. | Humidity | Pressure | Rain* | Wind** | Luminosity | Snow |
|---|---|---|---|---|---|---|---|
| 1788531379 | 32.22° C | 28% | 1005 hPa | 0 mm | - | - | - |
| 1788529558 | 32.78° C | 27% | 1004 hPa | 0 mm | - | - | - |
| 1788527753 | 32.78° C | 23% | 1004 hPa | 0 mm | - | - | - |
| 1788525917 | 32.78° C | 19% | 1005 hPa | 0 mm | - | - | - |
| 1788524098 | 32.78° C | 17% | 1005 hPa | 0 mm | - | - | - |
| 1788522277 | 33.33° C | 17% | 1005 hPa | 0 mm | - | - | - |
| 1788520456 | 33.33° C | 17% | 1005 hPa | 0 mm | - | - | - |
| 1788518635 | 32.22° C | 18% | 1006 hPa | 0 mm | - | - | - |
| 1788516816 | 31.11° C | 20% | 1006 hPa | 0 mm | - | - | - |
| 1788514995 | 28.89° C | 25% | 1005.1 hPa | 0 mm | - | - | - |
| 1788513175 | 26.67° C | 32% | 1005 hPa | 0 mm | - | - | - |
| 1788511356 | 23.89° C | 42% | 1005 hPa | 0 mm | - | - | - |
| 1788509534 | 21.67° C | 50% | 1005 hPa | 0 mm | - | - | - |
| 1788507715 | 19.44° C | 62% | 1005 hPa | 0 mm | - | - | - |
| 1788505894 | 17.78° C | 70% | 1005 hPa | 0 mm | - | - | - |
| 1788504074 | 16.67° C | 75% | 1005 hPa | 0 mm | - | - | - |
| 1788502254 | 16.11° C | 76% | 1005 hPa | 0 mm | - | - | - |
| 1788500433 | 16.11° C | 77% | 1005 hPa | 0 mm | - | - | - |
| 1788498614 | 16.11° C | 77% | 1005 hPa | 0 mm | - | - | - |
| 1788496793 | 16.67° C | 78% | 1005 hPa | 0 mm | - | - | - |
| 1788494973 | 16.67° C | 77% | 1005 hPa | 0 mm | - | - | - |
| 1788493153 | 17.22° C | 77% | 1005 hPa | 0 mm | - | - | - |
| 1788489511 | 17.22° C | 74% | 1005 hPa | 0 mm | - | - | - |
| 1788487691 | 17.22° C | 75% | 1006 hPa | 0 mm | - | - | - |
| 1788485870 | 17.78° C | 73% | 1006 hPa | 0 mm | - | - | - |
* Rain latest hour (hover to see other rain measurements)
** Current wind speed in m/s (hover to see current wind gust speed)